Etusivu
METAR-TAF:

METAR-TAF

Lentoasemat :

Marrakech, Marokko

Leveyspiiri: 31-37N, Pituuspiiri: 008-02W, korkeus merenpinnasta: 468 m

Tämänhetkinen sää

Tämä raportti tehtiin 6 minuuttia sitten, kello 00.30 UTC
Tuuli 4 kn idästä/koillisesta
Lämpötila 22°C
Kosteus 57%
Ilmanpaine 1017 hPa
Näkyvyys 10 km tai enemmän
ei pilviä alle 1500 m:ssä eikä cumulonimbus-pilviä

METAR: GMMX 180030Z 07004KT CAVOK 22/13 Q1017 NOSIG

Aika: 01:36 (00:36 UTC)

Sääennuste

Tämä raportti tehtiin 1 tunti ja 36 minuuttia sitten, kello 23.00 UTC
Ennuste voimassa 18. päivästä klo 00 UTC - 19. päivään klo 06 UTC
Tuuli 6 kn koillisesta
Näkyvyys 10 km tai enemmän
ei pilviä alle 1500 m:ssä eikä cumulonimbus-pilviä
Ajoittain
18. päivästä klo 14 UTC - 18. päivään klo 20 UTC
Tuuli 16 kn pohjoisesta/koillisesta
Hajanaisia pilviä 3000 ft:n korkeudessa
Hajanaisia pilviä 20000 ft:n korkeudessa

TAF: GMMX 172300Z 1800/1906 04006KT CAVOK TEMPO 1814/1820 02016KT SCT030 SCT200

Säähavainnot ja -ennusteet yli 4000 lentoasemalta (METAR- ja TAF-raportit).

Käytössä olevat sääasemat on merkitty karttaan keltaisilla ja punaisilla pisteillä.

Aseta hiiri pisteen päälle nähdäksesi sääaseman nimen.

Klikkaa sitten nähdäksesi säähavainnot ja -ennusteet.

Kartan vaihtaminen: klikkaa mustalla rastilla varustettuja vihreitä pisteitä, niin voit zoomata sisään; viivalla varustettua vihreää pistettä, niin voit zoomata ulos tai vihreitä nuolia, niin pääset viereisille kartoille.


METAR-TAF: